Sunday, October 22, 2017, 7:19 PM CDT
Back to Local

KRSL, Russell Municipal Airport

Location: Russell, KS, United States Lat: 38.867
Local Time: 7:19 PM CDT ( 0:19 GMT) Lon: -98.817
Time Zone: US/Central Elev: 1863 ft

Show me the last for .
Show Decoded

2017-10-22 18:53 METAR KRSL 222353Z AUTO 19005KT 10SM CLR 17/M02 A3004 RMK AO2 SLP177 T01671017
                 10222 20167 56011 =
2017-10-22 17:53 METAR KRSL 222253Z AUTO 23007KT 10SM CLR 21/M04 A3004 RMK AO2 SLP173 T02111039 =
2017-10-22 16:53 METAR KRSL 222153Z AUTO 23008KT 10SM CLR 22/M04 A3006 RMK AO2 SLP178 T02171044 =
2017-10-22 15:53 METAR KRSL 222053Z AUTO 24010KT 10SM CLR 21/M05 A3008 RMK AO2 SLP183 T02111050
                 56027 =
2017-10-22 14:53 METAR KRSL 221953Z AUTO 24012G20KT 10SM CLR 21/M06 A3009 RMK AO2 SLP190
                 T02111056 =
2017-10-22 13:53 METAR KRSL 221853Z AUTO 24009KT 10SM CLR 20/M04 A3012 RMK AO2 SLP199 T02001039 =
2017-10-22 12:53 METAR KRSL 221753Z AUTO 24014KT 10SM CLR 19/M02 A3016 RMK AO2 SLP211 T01941017
                 10194 21006 58007 =
2017-10-22 11:53 METAR KRSL 221653Z AUTO 25007KT 10SM CLR 17/02 A3018 RMK AO2 SLP220 T01670017 =
2017-10-22 10:53 METAR KRSL 221553Z AUTO 26006KT 10SM CLR 11/02 A3018 RMK AO2 SLP224 T01110022 =
2017-10-22 09:53 METAR KRSL 221453Z AUTO 25006KT 10SM CLR 07/02 A3018 RMK AO2 SLP226 T00670022
                 53010 =
2017-10-22 08:53 METAR KRSL 221353Z AUTO 23005KT 10SM CLR 02/01 A3016 RMK AO2 SLP222 T00220006 =
2017-10-22 07:53 METAR KRSL 221253Z AUTO 25007KT 10SM CLR 00/M01 A3015 RMK AO2 SLP218 T00001006 =
2017-10-22 06:53 METAR KRSL 221153Z AUTO 24006KT 10SM CLR 00/00 A3015 RMK AO2 SLP218 T00000000
                 10078 20000 51016 =
2017-10-22 05:53 METAR KRSL 221053Z AUTO 25007KT 10SM CLR 02/02 A3015 RMK AO2 SLP215 T00170017 =
2017-10-22 04:53 METAR KRSL 220953Z AUTO 23006KT 10SM CLR 02/02 A3011 RMK AO2 SLP200 T00220017 =
2017-10-22 03:53 METAR KRSL 220853Z AUTO 27007KT 10SM CLR 04/03 A3010 RMK AO2 SLP194 T00440033
                 53014 =
2017-10-22 02:53 METAR KRSL 220753Z AUTO 25007KT 10SM CLR 04/04 A3009 RMK AO2 SLP188 T00390039 =
2017-10-22 01:53 METAR KRSL 220653Z AUTO 25005KT 10SM CLR 05/04 A3005 RMK AO2 SLP174 T00500039 =
2017-10-22 00:53 METAR KRSL 220553Z AUTO 32003KT 10SM CLR 08/05 A3006 RMK AO2 SLP176 T00780050
                 10133 20078 402110078 53016 =
2017-10-21 23:53 METAR KRSL 220453Z AUTO 35006KT 10SM CLR 08/05 A3004 RMK AO2 SLP169 T00830050 =
2017-10-21 22:53 METAR KRSL 220353Z AUTO 35005KT 10SM CLR 10/05 A3002 RMK AO2 SLP164 T01000050 =
2017-10-21 21:53 METAR KRSL 220253Z AUTO 35007KT 10SM CLR 09/05 A3001 RMK AO2 SLP157 T00940050
                 51019 =
2017-10-21 20:53 METAR KRSL 220153Z AUTO 36006KT 10SM FEW120 11/05 A2997 RMK AO2 SLP145 T01110050
                 =
2017-10-21 19:53 METAR KRSL 220053Z AUTO 35009KT 10SM CLR 12/05 A2999 RMK AO2 SLP149 T01170050 =

Support USWX by starting your Amazon purchase here.